Time;durP1;ratioP1;P1;durP2;ratioP2;P2;SDS_P1;SDS_P2;PMS_P1;PMS_P2;Temp;Humidity;BMP_temperature;BMP_pressure;BME280_temperature;BME280_humidity;BME280_pressure;Samples;Min_cycle;Max_cycle;Signal;HPM_P1;HPM_P2
2022/07/04 00:00:15;;;;;;;2.78;1.73;;;;;;;;;;4966261;28;20116;-58
2022/07/04 00:02:41;;;;;;;1.20;1.00;;;;;;;;;;4966063;28;20053;-58
2022/07/04 00:05:10;;;;;;;3.58;1.10;;;;;;;;;;4967288;28;20504;-57
2022/07/04 00:07:36;;;;;;;;;;;;;;;;;;4966912;28;20117;-57
2022/07/04 00:10:02;;;;;;;1.58;0.98;;;;;;;;;;4965264;28;20545;-57
2022/07/04 00:12:28;;;;;;;2.38;1.40;;;;;;;;;;4966762;28;20046;-57
2022/07/04 00:14:54;;;;;;;2.28;1.63;;;;;;;;;;4966500;28;20097;-57
2022/07/04 00:17:20;;;;;;;4.57;2.22;;;;;;;;;;4966819;28;20511;-57
2022/07/04 00:19:46;;;;;;;3.53;2.05;;;;;;;;;;4966676;28;20039;-58
2022/07/04 00:22:12;;;;;;;4.13;1.83;;;;;;;;;;4966583;28;20144;-58
2022/07/04 00:24:38;;;;;;;3.28;1.40;;;;;;;;;;4966004;28;20481;-58
2022/07/04 00:27:05;;;;;;;2.50;2.00;;;;;;;;;;4964737;28;20059;-57
2022/07/04 00:29:32;;;;;;;2.17;1.77;;;;;;;;;;4965952;28;20051;-57
2022/07/04 00:31:58;;;;;;;4.20;2.03;;;;;;;;;;4966861;28;20049;-57
2022/07/04 00:34:25;;;;;;;2.30;1.92;;;;;;;;;;4965985;28;20057;-57
2022/07/04 00:36:51;;;;;;;3.22;1.27;;;;;;;;;;4966426;28;20039;-57
2022/07/04 00:39:17;;;;;;;3.17;1.80;;;;;;;;;;4964349;28;20263;-57
2022/07/04 00:41:44;;;;;;;2.75;2.00;;;;;;;;;;4966321;28;20055;-58
2022/07/04 00:44:11;;;;;;;3.33;2.42;;;;;;;;;;4966821;28;20125;-57
2022/07/04 00:46:37;;;;;;;3.70;2.17;;;;;;;;;;4966872;28;20054;-57
2022/07/04 00:49:05;;;;;;;4.43;2.47;;;;;;;;;;4966274;28;20057;-57
2022/07/04 00:51:31;;;;;;;4.20;2.15;;;;;;;;;;4966604;28;20062;-57
2022/07/04 00:53:57;;;;;;;2.85;2.15;;;;;;;;;;4965312;28;20039;-57
2022/07/04 00:56:24;;;;;;;2.50;1.70;;;;;;;;;;4965760;28;20559;-58
2022/07/04 00:58:50;;;;;;;6.25;2.13;;;;;;;;;;4966134;28;20489;-57
2022/07/04 01:01:17;;;;;;;4.03;1.90;;;;;;;;;;4965107;28;20537;-58
2022/07/04 01:03:44;;;;;;;5.95;3.92;;;;;;;;;;4966210;28;20053;-58
2022/07/04 01:06:10;;;;;;;6.68;3.33;;;;;;;;;;4966558;28;20041;-57
2022/07/04 01:08:38;;;;;;;4.43;2.90;;;;;;;;;;4965095;28;20085;-58
2022/07/04 01:11:04;;;;;;;6.68;3.28;;;;;;;;;;4953182;28;20043;-57
2022/07/04 01:13:30;;;;;;;4.95;3.45;;;;;;;;;;4965972;28;20046;-57
2022/07/04 01:15:56;;;;;;;5.78;3.75;;;;;;;;;;4966351;28;20063;-57
2022/07/04 01:18:22;;;;;;;4.93;3.50;;;;;;;;;;4966085;28;20108;-57
2022/07/04 01:20:49;;;;;;;12.70;4.60;;;;;;;;;;4966004;28;20047;-57
2022/07/04 01:23:15;;;;;;;9.20;4.50;;;;;;;;;;4968184;28;20175;-57
2022/07/04 01:25:42;;;;;;;7.90;4.45;;;;;;;;;;4970283;28;20653;-61
2022/07/04 01:28:08;;;;;;;6.95;4.15;;;;;;;;;;4968289;28;20051;-57
2022/07/04 01:30:34;;;;;;;6.38;4.35;;;;;;;;;;4969701;28;20513;-57
2022/07/04 01:33:01;;;;;;;6.43;4.40;;;;;;;;;;4969602;28;20174;-57
2022/07/04 01:35:27;;;;;;;6.20;4.40;;;;;;;;;;4969471;28;20039;-57
2022/07/04 01:37:53;;;;;;;6.22;4.00;;;;;;;;;;4968457;28;20050;-57
2022/07/04 01:40:19;;;;;;;7.60;4.75;;;;;;;;;;4969542;28;20178;-57
2022/07/04 01:42:45;;;;;;;6.82;4.78;;;;;;;;;;4969415;28;20101;-58
2022/07/04 01:45:12;;;;;;;6.07;4.22;;;;;;;;;;4969822;28;20045;-57
2022/07/04 01:47:39;;;;;;;7.25;4.22;;;;;;;;;;4970018;28;20043;-57
2022/07/04 01:50:06;;;;;;;10.73;4.65;;;;;;;;;;4969506;28;20050;-57
2022/07/04 01:52:32;;;;;;;7.43;4.88;;;;;;;;;;4967964;28;20047;-57
2022/07/04 01:54:59;;;;;;;7.57;4.47;;;;;;;;;;4968079;28;20061;-57
2022/07/04 01:57:25;;;;;;;7.45;4.97;;;;;;;;;;4968950;28;20038;-57
2022/07/04 02:02:36;;;;;;;5.68;3.75;;;;;;;;;;4955416;28;20501;-58
2022/07/04 02:05:03;;;;;;;8.45;4.35;;;;;;;;;;4968991;28;20409;-57
2022/07/04 02:07:29;;;;;;;7.82;4.45;;;;;;;;;;4967423;28;20094;-57
2022/07/04 02:09:55;;;;;;;7.47;4.90;;;;;;;;;;4969146;28;20051;-58
2022/07/04 02:15:06;;;;;;;5.45;3.35;;;;;;;;;;4968751;28;20051;-57
2022/07/04 02:17:33;;;;;;;5.65;3.67;;;;;;;;;;4968882;28;20492;-58
2022/07/04 02:19:59;;;;;;;9.23;4.80;;;;;;;;;;4969125;28;20046;-57
2022/07/04 02:22:25;;;;;;;5.60;4.40;;;;;;;;;;4967666;28;20054;-58
2022/07/04 02:24:51;;;;;;;7.60;4.60;;;;;;;;;;4968840;28;20038;-57
2022/07/04 02:27:17;;;;;;;9.43;4.63;;;;;;;;;;4967401;28;20058;-57
2022/07/04 02:29:44;;;;;;;8.02;4.57;;;;;;;;;;4968350;28;20055;-58
2022/07/04 02:32:10;;;;;;;9.57;3.97;;;;;;;;;;4967775;28;20050;-57
2022/07/04 02:34:36;;;;;;;4.63;3.30;;;;;;;;;;4968276;28;20057;-57
2022/07/04 02:37:02;;;;;;;6.88;3.22;;;;;;;;;;4968732;28;20046;-57
2022/07/04 02:39:28;;;;;;;4.35;3.13;;;;;;;;;;4967500;28;20042;-57
2022/07/04 02:41:55;;;;;;;6.00;2.60;;;;;;;;;;4967944;28;20122;-57
2022/07/04 02:44:21;;;;;;;5.00;3.05;;;;;;;;;;4968248;28;20046;-57
2022/07/04 02:46:47;;;;;;;7.03;3.88;;;;;;;;;;4968504;28;20045;-57
2022/07/04 02:49:13;;;;;;;4.80;2.50;;;;;;;;;;4966620;28;20047;-58
2022/07/04 02:51:39;;;;;;;3.42;2.50;;;;;;;;;;4960936;28;20533;-57
2022/07/04 02:54:05;;;;;;;5.07;2.90;;;;;;;;;;4967139;28;20050;-58
2022/07/04 02:56:31;;;;;;;3.65;2.40;;;;;;;;;;4967406;28;20563;-57
2022/07/04 02:58:57;;;;;;;5.43;2.03;;;;;;;;;;4966608;28;20050;-57
2022/07/04 03:01:24;;;;;;;2.35;1.95;;;;;;;;;;4968068;28;20043;-57
2022/07/04 03:03:50;;;;;;;2.83;2.20;;;;;;;;;;4968090;28;20466;-57
2022/07/04 03:06:16;;;;;;;3.70;2.85;;;;;;;;;;4967828;28;20511;-58
2022/07/04 03:08:42;;;;;;;2.60;1.92;;;;;;;;;;4966910;28;20042;-58
2022/07/04 03:11:09;;;;;;;3.60;2.20;;;;;;;;;;4967594;28;20497;-57
2022/07/04 03:13:36;;;;;;;3.25;2.17;;;;;;;;;;4967470;28;20182;-57
2022/07/04 03:16:02;;;;;;;3.72;2.30;;;;;;;;;;4968015;28;20076;-57
2022/07/04 03:18:28;;;;;;;3.55;2.75;;;;;;;;;;4967792;28;20055;-58
2022/07/04 03:20:54;;;;;;;4.70;2.90;;;;;;;;;;4967620;28;20038;-57
2022/07/04 03:23:20;;;;;;;4.10;2.88;;;;;;;;;;4966679;28;20052;-58
2022/07/04 03:25:46;;;;;;;4.45;2.95;;;;;;;;;;4967099;28;20035;-57
2022/07/04 03:28:12;;;;;;;8.93;3.28;;;;;;;;;;4966960;28;20065;-58
2022/07/04 03:30:38;;;;;;;7.10;3.40;;;;;;;;;;4967806;28;20050;-57
2022/07/04 03:33:05;;;;;;;6.35;3.17;;;;;;;;;;4964413;28;20046;-57
2022/07/04 03:35:31;;;;;;;6.28;3.47;;;;;;;;;;4943505;28;20042;-57
2022/07/04 03:37:57;;;;;;;7.40;3.60;;;;;;;;;;4966493;28;20138;-57
2022/07/04 03:40:24;;;;;;;4.45;3.00;;;;;;;;;;4966561;28;20050;-57
2022/07/04 03:42:50;;;;;;;4.68;3.28;;;;;;;;;;4967289;28;20046;-58
2022/07/04 03:45:16;;;;;;;4.72;3.45;;;;;;;;;;4966245;28;20039;-57
2022/07/04 03:47:42;;;;;;;6.65;3.78;;;;;;;;;;4950074;28;20046;-58
2022/07/04 03:50:08;;;;;;;4.47;3.25;;;;;;;;;;4967408;28;20146;-57
2022/07/04 03:52:34;;;;;;;4.20;3.10;;;;;;;;;;4965806;28;20043;-57
2022/07/04 03:55:01;;;;;;;8.70;3.92;;;;;;;;;;4966640;28;20118;-57
2022/07/04 03:57:27;;;;;;;5.45;3.75;;;;;;;;;;4966829;28;20125;-57
2022/07/04 03:59:53;;;;;;;5.35;3.75;;;;;;;;;;4955494;28;20109;-57
2022/07/04 04:02:19;;;;;;;7.55;3.92;;;;;;;;;;4966854;28;20492;-58
2022/07/04 04:07:30;;;;;;;7.10;4.03;;;;;;;;;;4965673;28;20047;-57
2022/07/04 04:09:56;;;;;;;11.38;4.50;;;;;;;;;;4966895;28;20042;-57
2022/07/04 04:12:22;;;;;;;6.25;4.72;;;;;;;;;;4966522;28;20069;-58
2022/07/04 04:14:48;;;;;;;7.43;4.68;;;;;;;;;;4966885;28;20055;-57
2022/07/04 04:17:14;;;;;;;10.07;4.88;;;;;;;;;;4966352;28;20039;-58
2022/07/04 04:19:40;;;;;;;6.30;4.63;;;;;;;;;;4966715;28;20155;-57
2022/07/04 04:22:06;;;;;;;6.57;4.35;;;;;;;;;;4965762;28;20122;-57
2022/07/04 04:24:32;;;;;;;8.52;4.45;;;;;;;;;;4966462;28;20043;-57
2022/07/04 04:26:58;;;;;;;5.70;4.32;;;;;;;;;;4966261;28;20070;-57
2022/07/04 04:29:25;;;;;;;9.68;4.90;;;;;;;;;;4966513;28;20053;-57
2022/07/04 04:31:51;;;;;;;10.20;4.93;;;;;;;;;;4966405;28;20074;-57
2022/07/04 04:34:17;;;;;;;7.93;4.82;;;;;;;;;;4966067;28;20038;-58
2022/07/04 04:36:43;;;;;;;5.88;4.70;;;;;;;;;;4966435;28;20221;-58
2022/07/04 04:39:09;;;;;;;6.53;4.40;;;;;;;;;;4965761;28;20119;-57
2022/07/04 04:41:35;;;;;;;10.10;4.85;;;;;;;;;;4956695;28;20051;-57
2022/07/04 04:44:01;;;;;;;10.00;5.57;;;;;;;;;;4966425;28;20087;-57
2022/07/04 04:46:27;;;;;;;10.55;6.10;;;;;;;;;;4966010;28;20126;-57
2022/07/04 04:48:53;;;;;;;10.93;6.47;;;;;;;;;;4965877;28;20053;-58
2022/07/04 04:51:19;;;;;;;9.65;5.72;;;;;;;;;;4966160;28;20051;-57
2022/07/04 04:53:46;;;;;;;14.45;6.53;;;;;;;;;;4965554;28;20047;-58
2022/07/04 04:56:12;;;;;;;11.63;7.60;;;;;;;;;;4968029;28;20043;-60
2022/07/04 04:58:38;;;;;;;14.63;7.93;;;;;;;;;;4968080;28;20074;-57
2022/07/04 05:01:04;;;;;;;15.70;8.60;;;;;;;;;;4952519;28;20440;-57
2022/07/04 05:03:30;;;;;;;14.57;9.02;;;;;;;;;;4964300;28;20054;-57
2022/07/04 05:05:56;;;;;;;23.50;9.38;;;;;;;;;;4951045;28;20130;-57
2022/07/04 05:08:24;;;;;;;15.65;8.98;;;;;;;;;;4949880;28;20137;-57
2022/07/04 05:10:51;;;;;;;17.17;9.02;;;;;;;;;;4940626;28;20047;-57
2022/07/04 05:13:17;;;;;;;15.98;8.82;;;;;;;;;;4950254;28;20047;-57
2022/07/04 05:15:43;;;;;;;15.88;8.57;;;;;;;;;;4948747;28;20039;-57
2022/07/04 05:18:09;;;;;;;15.45;8.93;;;;;;;;;;4945554;28;20032;-58
2022/07/04 05:20:35;;;;;;;18.33;7.85;;;;;;;;;;4947708;28;20051;-57
2022/07/04 05:23:02;;;;;;;17.48;7.38;;;;;;;;;;4940073;28;20485;-57
2022/07/04 05:25:28;;;;;;;13.23;6.97;;;;;;;;;;4945003;28;20054;-57
2022/07/04 05:27:54;;;;;;;15.70;7.60;;;;;;;;;;4958867;28;20523;-57
2022/07/04 05:30:20;;;;;;;16.52;7.20;;;;;;;;;;4967546;28;20057;-57
2022/07/04 05:32:46;;;;;;;15.35;6.47;;;;;;;;;;4968156;28;20390;-56
2022/07/04 05:35:12;;;;;;;12.70;6.45;;;;;;;;;;4962259;28;20038;-58
2022/07/04 05:37:38;;;;;;;11.98;6.15;;;;;;;;;;4966786;28;20063;-57
2022/07/04 05:40:05;;;;;;;12.15;5.80;;;;;;;;;;4967131;28;20126;-57
2022/07/04 05:42:31;;;;;;;8.90;5.15;;;;;;;;;;4966332;28;20050;-57
2022/07/04 05:44:57;;;;;;;10.82;5.57;;;;;;;;;;4964433;28;20039;-56
2022/07/04 05:47:24;;;;;;;8.05;5.47;;;;;;;;;;4965136;28;20047;-57
2022/07/04 05:49:51;;;;;;;12.85;5.80;;;;;;;;;;4960788;28;20059;-57
2022/07/04 05:52:17;;;;;;;14.45;5.57;;;;;;;;;;4962755;28;20035;-57
2022/07/04 05:54:43;;;;;;;10.13;5.38;;;;;;;;;;4961934;28;20055;-57
2022/07/04 05:57:09;;;;;;;11.15;5.07;;;;;;;;;;4967890;28;20039;-57
2022/07/04 05:59:36;;;;;;;10.60;4.80;;;;;;;;;;4968081;28;20097;-56
2022/07/04 06:02:02;;;;;;;17.02;4.65;;;;;;;;;;4967836;28;20495;-57
2022/07/04 06:04:28;;;;;;;9.82;4.32;;;;;;;;;;4968200;28;20129;-57
2022/07/04 06:06:54;;;;;;;6.20;4.07;;;;;;;;;;4966659;28;20498;-57
2022/07/04 06:09:21;;;;;;;9.82;4.35;;;;;;;;;;4967867;28;20082;-57
2022/07/04 06:11:47;;;;;;;10.70;4.30;;;;;;;;;;4967279;28;20527;-58
2022/07/04 06:14:13;;;;;;;8.63;4.50;;;;;;;;;;4967408;28;20524;-57
2022/07/04 06:16:39;;;;;;;9.82;4.57;;;;;;;;;;4967572;28;20125;-58
2022/07/04 06:19:05;;;;;;;10.18;4.07;;;;;;;;;;4967372;28;20073;-58
2022/07/04 06:21:31;;;;;;;11.20;4.38;;;;;;;;;;4967926;28;20093;-58
2022/07/04 06:23:58;;;;;;;10.13;4.20;;;;;;;;;;4967333;28;20336;-58
2022/07/04 06:26:24;;;;;;;6.40;3.78;;;;;;;;;;4965599;28;20047;-57
2022/07/04 06:28:50;;;;;;;12.25;4.78;;;;;;;;;;4967098;28;20051;-58
2022/07/04 06:31:16;;;;;;;8.88;4.07;;;;;;;;;;4967448;28;20070;-58
2022/07/04 06:36:28;;;;;;;7.78;4.22;;;;;;;;;;4965750;28;20086;-57
2022/07/04 06:38:54;;;;;;;9.32;4.07;;;;;;;;;;4967169;28;20051;-58
2022/07/04 06:41:20;;;;;;;11.50;4.63;;;;;;;;;;4966083;28;20841;-58
2022/07/04 06:43:46;;;;;;;10.00;4.45;;;;;;;;;;4966173;28;20055;-58
2022/07/04 06:46:12;;;;;;;15.40;5.65;;;;;;;;;;4963220;28;20547;-58
2022/07/04 06:48:38;;;;;;;8.00;4.28;;;;;;;;;;4967961;28;20049;-57
2022/07/04 06:51:05;;;;;;;11.82;4.63;;;;;;;;;;4967382;28;20035;-58
2022/07/04 06:53:31;;;;;;;15.75;4.85;;;;;;;;;;4966746;28;20496;-58
2022/07/04 06:55:57;;;;;;;12.10;5.15;;;;;;;;;;4967038;28;20068;-57
2022/07/04 06:58:23;;;;;;;10.70;4.63;;;;;;;;;;4966811;28;20571;-58
2022/07/04 07:00:49;;;;;;;9.18;4.88;;;;;;;;;;4967047;28;20396;-58
2022/07/04 07:03:15;;;;;;;13.05;5.28;;;;;;;;;;4964561;28;20046;-58
2022/07/04 07:05:42;;;;;;;12.40;4.93;;;;;;;;;;4967539;28;20042;-58
2022/07/04 07:08:08;;;;;;;18.30;5.20;;;;;;;;;;4966882;28;20046;-57
2022/07/04 07:10:35;;;;;;;12.50;5.13;;;;;;;;;;4966714;28;20050;-57
2022/07/04 07:13:02;;;;;;;8.63;4.65;;;;;;;;;;4964230;28;20476;-57
2022/07/04 07:15:28;;;;;;;10.88;4.55;;;;;;;;;;4966582;28;20047;-57
2022/07/04 07:17:54;;;;;;;11.00;5.55;;;;;;;;;;4967462;28;20721;-58
2022/07/04 07:20:20;;;;;;;11.55;4.70;;;;;;;;;;4965288;28;20516;-58
2022/07/04 07:22:46;;;;;;;8.80;3.70;;;;;;;;;;4963213;28;20043;-57
2022/07/04 07:25:13;;;;;;;11.65;4.45;;;;;;;;;;4965515;28;20043;-58
2022/07/04 07:27:41;;;;;;;9.77;4.55;;;;;;;;;;4966864;28;20521;-58
2022/07/04 07:30:07;;;;;;;9.80;4.07;;;;;;;;;;4967444;28;20065;-57
2022/07/04 07:32:33;;;;;;;10.50;5.75;;;;;;;;;;4965786;28;20043;-58
2022/07/04 07:34:59;;;;;;;11.30;5.10;;;;;;;;;;4966962;28;20035;-58
2022/07/04 07:37:26;;;;;;;9.63;5.15;;;;;;;;;;4965423;28;20038;-58
2022/07/04 07:39:52;;;;;;;9.20;4.35;;;;;;;;;;4966595;28;20061;-58
2022/07/04 07:42:18;;;;;;;10.55;4.55;;;;;;;;;;4966066;28;20074;-58
2022/07/04 07:44:46;;;;;;;13.57;5.45;;;;;;;;;;4966797;28;20062;-58
2022/07/04 07:47:15;;;;;;;14.48;5.88;;;;;;;;;;4966397;28;20050;-58
2022/07/04 07:49:41;;;;;;;13.48;4.70;;;;;;;;;;4967199;28;20050;-58
2022/07/04 07:52:08;;;;;;;9.13;4.13;;;;;;;;;;4965896;28;20046;-58
2022/07/04 07:54:34;;;;;;;11.40;3.75;;;;;;;;;;4965793;28;20054;-58
2022/07/04 07:57:00;;;;;;;13.02;4.20;;;;;;;;;;4966878;28;20045;-58
2022/07/04 07:59:26;;;;;;;10.70;4.53;;;;;;;;;;4966855;28;20053;-58
2022/07/04 08:01:52;;;;;;;11.13;3.85;;;;;;;;;;4966563;28;20117;-58
2022/07/04 08:04:40;;;;;;;10.77;3.65;;;;;;;;;;4965899;28;20039;-58
2022/07/04 08:07:06;;;;;;;11.63;3.38;;;;;;;;;;4965600;28;20098;-57
2022/07/04 08:09:32;;;;;;;11.70;3.10;;;;;;;;;;4966251;28;20089;-57
2022/07/04 08:11:59;;;;;;;7.85;3.30;;;;;;;;;;4966590;28;20784;-58
2022/07/04 08:14:25;;;;;;;7.35;2.13;;;;;;;;;;4962315;28;20073;-57
2022/07/04 08:16:51;;;;;;;6.63;2.40;;;;;;;;;;4965937;28;20081;-57
2022/07/04 08:19:17;;;;;;;12.40;2.38;;;;;;;;;;4965432;28;20046;-58
2022/07/04 08:21:46;;;;;;;8.40;2.35;;;;;;;;;;4964858;28;20065;-58
2022/07/04 08:24:13;;;;;;;4.47;1.67;;;;;;;;;;4965845;28;20050;-58
2022/07/04 08:26:39;;;;;;;5.03;1.45;;;;;;;;;;4965835;28;20462;-57
2022/07/04 08:29:05;;;;;;;8.15;1.90;;;;;;;;;;4965898;28;20105;-57
2022/07/04 08:31:31;;;;;;;8.73;2.00;;;;;;;;;;4965967;28;20051;-58
2022/07/04 08:33:57;;;;;;;5.85;2.45;;;;;;;;;;4964248;28;20074;-58
2022/07/04 08:36:24;;;;;;;6.47;1.52;;;;;;;;;;4964762;28;20094;-58
2022/07/04 08:38:50;;;;;;;6.25;2.00;;;;;;;;;;4966138;28;20147;-58
2022/07/04 08:41:16;;;;;;;6.18;2.10;;;;;;;;;;4965912;28;20038;-58
2022/07/04 08:43:43;;;;;;;5.65;2.00;;;;;;;;;;4965773;28;20133;-58
2022/07/04 08:46:10;;;;;;;7.55;1.90;;;;;;;;;;4965832;28;20038;-58
2022/07/04 08:48:38;;;;;;;5.30;1.80;;;;;;;;;;4964837;28;20043;-57
2022/07/04 08:51:13;;;;;;;5.28;1.58;;;;;;;;;;4965919;28;20109;-57
2022/07/04 08:53:39;;;;;;;9.52;1.98;;;;;;;;;;4965739;28;20051;-57
2022/07/04 08:58:59;;;;;;;6.65;1.88;;;;;;;;;;4962741;28;20047;-58
2022/07/04 09:01:27;;;;;;;3.97;1.40;;;;;;;;;;4965547;28;20049;-58
2022/07/04 09:03:54;;;;;;;6.15;1.48;;;;;;;;;;4965790;28;20042;-57
2022/07/04 09:06:20;;;;;;;7.25;1.40;;;;;;;;;;4965248;28;20489;-58
2022/07/04 09:08:46;;;;;;;4.90;1.77;;;;;;;;;;4963065;28;20046;-58
2022/07/04 09:11:12;;;;;;;7.72;1.73;;;;;;;;;;4964516;28;20105;-58
2022/07/04 09:13:39;;;;;;;5.28;1.50;;;;;;;;;;4965436;28;20050;-57
2022/07/04 09:16:05;;;;;;;5.72;1.60;;;;;;;;;;4965670;28;20702;-57
2022/07/04 09:18:33;;;;;;;5.57;1.23;;;;;;;;;;4965712;28;20049;-57
2022/07/04 09:21:00;;;;;;;5.75;1.38;;;;;;;;;;4965571;28;20150;-58
2022/07/04 09:23:27;;;;;;;5.93;1.40;;;;;;;;;;4963906;28;20077;-57
2022/07/04 09:26:13;;;;;;;6.03;1.48;;;;;;;;;;4964907;28;20049;-58
2022/07/04 09:28:40;;;;;;;3.38;1.10;;;;;;;;;;4965256;28;20493;-58
2022/07/04 09:31:16;;;;;;;7.43;1.20;;;;;;;;;;4965456;28;20144;-57
2022/07/04 09:33:45;;;;;;;3.30;1.50;;;;;;;;;;4965277;28;20054;-58
2022/07/04 09:36:13;;;;;;;4.78;1.00;;;;;;;;;;4964982;28;20113;-58
2022/07/04 09:38:39;;;;;;;;;;;;;;;;;;4966194;28;20086;-57
2022/07/04 09:44:05;;;;;;;7.97;1.13;;;;;;;;;;4967047;28;20079;-57
2022/07/04 09:46:31;;;;;;;5.45;1.30;;;;;;;;;;4968443;28;20050;-58
2022/07/04 09:48:57;;;;;;;3.70;1.10;;;;;;;;;;4968733;28;20401;-57
2022/07/04 09:51:44;;;;;;;1.80;0.90;;;;;;;;;;4967424;28;20043;-57
2022/07/04 09:54:21;;;;;;;2.03;0.70;;;;;;;;;;4966948;28;20054;-57
2022/07/04 09:56:48;;;;;;;3.70;1.40;;;;;;;;;;4967282;28;20067;-58
2022/07/04 09:59:14;;;;;;;4.93;1.00;;;;;;;;;;4965505;28;20079;-57
2022/07/04 10:01:41;;;;;;;3.88;0.80;;;;;;;;;;4967961;28;20496;-57
2022/07/04 10:04:08;;;;;;;1.98;0.77;;;;;;;;;;4968850;28;20043;-57
2022/07/04 10:06:35;;;;;;;3.72;0.70;;;;;;;;;;4966822;28;20051;-58
2022/07/04 10:09:10;;;;;;;3.15;0.77;;;;;;;;;;4968420;28;20051;-58
2022/07/04 10:11:38;;;;;;;3.38;0.90;;;;;;;;;;4960436;28;20047;-57
2022/07/04 10:14:05;;;;;;;4.75;1.50;;;;;;;;;;4964982;28;20051;-58
2022/07/04 10:16:31;;;;;;;3.70;0.90;;;;;;;;;;4965158;28;20043;-57
2022/07/04 10:18:57;;;;;;;4.65;0.90;;;;;;;;;;4965971;28;20038;-58
2022/07/04 10:21:24;;;;;;;2.53;0.80;;;;;;;;;;4963889;28;20046;-58
2022/07/04 10:23:51;;;;;;;2.42;0.65;;;;;;;;;;4965250;28;20055;-58
2022/07/04 10:26:19;;;;;;;2.97;0.73;;;;;;;;;;4959777;28;20046;-57
2022/07/04 10:28:47;;;;;;;2.25;0.95;;;;;;;;;;4964688;28;20076;-58
2022/07/04 10:31:14;;;;;;;2.75;1.05;;;;;;;;;;4966019;28;20047;-58
2022/07/04 10:33:40;;;;;;;4.03;1.10;;;;;;;;;;4965823;28;20043;-57
2022/07/04 10:36:17;;;;;;;4.93;0.93;;;;;;;;;;4964943;28;20579;-58
2022/07/04 10:38:51;;;;;;;2.42;0.77;;;;;;;;;;4964723;28;20053;-58
2022/07/04 10:41:20;;;;;;;2.45;1.00;;;;;;;;;;4964865;28;20078;-57
2022/07/04 10:43:57;;;;;;;4.35;1.20;;;;;;;;;;4964950;28;20089;-58
2022/07/04 10:46:24;;;;;;;3.72;1.10;;;;;;;;;;4961705;28;20464;-57
2022/07/04 10:48:51;;;;;;;4.60;1.10;;;;;;;;;;4965022;28;20057;-58
2022/07/04 10:51:39;;;;;;;2.85;1.10;;;;;;;;;;4964301;28;20085;-58
2022/07/04 10:54:06;;;;;;;4.93;1.23;;;;;;;;;;4963506;28;20058;-58
2022/07/04 10:56:39;;;;;;;4.82;1.17;;;;;;;;;;4964942;28;20160;-58
2022/07/04 10:59:10;;;;;;;5.07;1.35;;;;;;;;;;4964711;28;20055;-57
2022/07/04 11:01:36;;;;;;;1.48;0.95;;;;;;;;;;4964395;28;20050;-58
2022/07/04 11:04:02;;;;;;;4.18;1.23;;;;;;;;;;4963736;28;20408;-57
2022/07/04 11:06:36;;;;;;;3.40;1.20;;;;;;;;;;4963083;28;20089;-58
2022/07/04 11:09:15;;;;;;;4.40;1.20;;;;;;;;;;4964424;28;20354;-58
2022/07/04 11:11:51;;;;;;;3.53;1.08;;;;;;;;;;4963686;28;20047;-58
2022/07/04 11:14:38;;;;;;;2.38;1.23;;;;;;;;;;4964887;28;20093;-58
2022/07/04 11:17:06;;;;;;;4.38;1.10;;;;;;;;;;4965168;28;20042;-59
2022/07/04 11:19:32;;;;;;;4.43;1.42;;;;;;;;;;4961342;28;20568;-59
2022/07/04 11:21:58;;;;;;;4.97;1.38;;;;;;;;;;4963941;28;20038;-59
2022/07/04 11:24:25;;;;;;;2.67;1.15;;;;;;;;;;4964385;28;20047;-59
2022/07/04 11:26:51;;;;;;;3.38;1.60;;;;;;;;;;4962650;28;20047;-59
2022/07/04 11:29:18;;;;;;;2.20;1.17;;;;;;;;;;4963822;28;21033;-59
2022/07/04 11:31:45;;;;;;;3.28;0.73;;;;;;;;;;4964096;28;20062;-60
2022/07/04 11:34:11;;;;;;;1.97;0.90;;;;;;;;;;4964677;28;20055;-59
2022/07/04 11:36:40;;;;;;;3.72;1.10;;;;;;;;;;4961442;28;20077;-59
2022/07/04 11:39:06;;;;;;;;;;;;;;;;;;4964732;28;20054;-59
2022/07/04 11:47:05;;;;;;;4.32;0.90;;;;;;;;;;4959220;28;20409;-59
2022/07/04 11:49:32;;;;;;;4.05;0.90;;;;;;;;;;4955281;28;20051;-59
2022/07/04 11:51:58;;;;;;;5.00;0.90;;;;;;;;;;4965678;28;20056;-59
2022/07/04 11:54:24;;;;;;;1.02;0.70;;;;;;;;;;4966310;28;20121;-59
2022/07/04 11:56:51;;;;;;;3.80;0.90;;;;;;;;;;4966855;28;20047;-59
2022/07/04 11:59:17;;;;;;;3.67;0.90;;;;;;;;;;4966664;28;20039;-59
2022/07/04 12:01:44;;;;;;;3.25;1.02;;;;;;;;;;4966408;28;20057;-59
2022/07/04 12:04:15;;;;;;;2.95;0.80;;;;;;;;;;4965781;28;20404;-59
2022/07/04 12:06:41;;;;;;;3.35;0.90;;;;;;;;;;4964922;28;20043;-59
2022/07/04 12:09:07;;;;;;;2.22;0.90;;;;;;;;;;4966863;28;20043;-59
2022/07/04 12:11:52;;;;;;;3.95;0.80;;;;;;;;;;4965856;28;20097;-59
2022/07/04 12:14:18;;;;;;;1.70;0.60;;;;;;;;;;4966305;28;20127;-59
2022/07/04 12:16:47;;;;;;;1.50;0.75;;;;;;;;;;4966198;28;20047;-59
2022/07/04 12:19:13;;;;;;;;;;;;;;;;;;4964548;28;20051;-59
2022/07/04 12:21:39;;;;;;;3.75;0.80;;;;;;;;;;4965610;28;19976;-59
2022/07/04 12:24:05;;;;;;;1.90;0.50;;;;;;;;;;4963205;28;20130;-59
2022/07/04 12:26:32;;;;;;;4.13;1.20;;;;;;;;;;4963940;28;20059;-59
2022/07/04 12:28:58;;;;;;;2.95;0.60;;;;;;;;;;4965705;28;20058;-59
2022/07/04 12:31:39;;;;;;;4.10;0.88;;;;;;;;;;4964601;28;20104;-59
2022/07/04 12:34:13;;;;;;;5.05;0.70;;;;;;;;;;4965768;28;20050;-59
2022/07/04 12:36:49;;;;;;;3.83;0.50;;;;;;;;;;4965415;28;20058;-59
2022/07/04 12:39:31;;;;;;;1.55;0.50;;;;;;;;;;4965317;28;20070;-59
2022/07/04 12:42:04;;;;;;;4.43;0.60;;;;;;;;;;4965769;28;20456;-59
2022/07/04 12:44:31;;;;;;;3.40;0.70;;;;;;;;;;4964836;28;20050;-59
2022/07/04 12:46:57;;;;;;;2.80;0.50;;;;;;;;;;4965904;28;20034;-58
2022/07/04 12:49:23;;;;;;;2.03;0.57;;;;;;;;;;4964198;28;20050;-58
2022/07/04 12:51:49;;;;;;;2.97;0.60;;;;;;;;;;4965252;28;20050;-59
2022/07/04 12:54:16;;;;;;;2.08;0.50;;;;;;;;;;4965267;28;20205;-59
2022/07/04 12:56:44;;;;;;;7.82;0.50;;;;;;;;;;4965707;28;20556;-60
2022/07/04 12:59:12;;;;;;;4.28;0.52;;;;;;;;;;4962965;28;20493;-59
2022/07/04 13:01:39;;;;;;;3.53;0.50;;;;;;;;;;4965824;28;20036;-59
2022/07/04 13:04:05;;;;;;;2.47;0.52;;;;;;;;;;4966260;28;20047;-58
2022/07/04 13:06:31;;;;;;;3.53;0.50;;;;;;;;;;4964903;28;20721;-59
2022/07/04 13:08:58;;;;;;;3.63;0.57;;;;;;;;;;4965409;28;20043;-59
2022/07/04 13:14:09;;;;;;;3.55;0.57;;;;;;;;;;4965367;28;20070;-59
2022/07/04 13:16:35;;;;;;;2.13;0.65;;;;;;;;;;4965957;28;20050;-59
2022/07/04 13:19:02;;;;;;;0.70;0.40;;;;;;;;;;4969271;28;20054;-59
2022/07/04 13:21:28;;;;;;;4.07;0.88;;;;;;;;;;4968618;28;20073;-59
2022/07/04 13:23:54;;;;;;;4.28;0.68;;;;;;;;;;4967427;28;20493;-59
2022/07/04 13:26:20;;;;;;;0.82;0.30;;;;;;;;;;4966945;28;20053;-59
2022/07/04 13:28:47;;;;;;;2.67;0.47;;;;;;;;;;4966357;28;20054;-59
2022/07/04 13:31:14;;;;;;;2.30;0.50;;;;;;;;;;4964907;28;20065;-59
2022/07/04 13:33:40;;;;;;;3.23;0.50;;;;;;;;;;4964160;28;20055;-59
2022/07/04 13:36:07;;;;;;;3.28;0.60;;;;;;;;;;4965117;28;20291;-58
2022/07/04 13:38:33;;;;;;;1.02;0.50;;;;;;;;;;4965766;28;20049;-58
2022/07/04 13:41:00;;;;;;;1.00;0.40;;;;;;;;;;4967560;28;20039;-58
2022/07/04 13:43:28;;;;;;;1.50;0.52;;;;;;;;;;4966196;28;20173;-58
2022/07/04 13:45:56;;;;;;;2.53;0.52;;;;;;;;;;4965795;28;20043;-58
2022/07/04 13:48:22;;;;;;;1.10;0.40;;;;;;;;;;4961651;28;20054;-58
2022/07/04 13:50:48;;;;;;;1.20;0.57;;;;;;;;;;4960838;28;20059;-58
2022/07/04 13:53:15;;;;;;;4.13;0.47;;;;;;;;;;4967397;28;20043;-59
2022/07/04 13:55:43;;;;;;;1.50;0.40;;;;;;;;;;4968238;28;20043;-58
2022/07/04 13:58:09;;;;;;;4.57;0.70;;;;;;;;;;4967357;28;20042;-59
2022/07/04 14:00:36;;;;;;;7.00;0.75;;;;;;;;;;4964348;28;20116;-58
2022/07/04 14:03:02;;;;;;;4.53;0.43;;;;;;;;;;4965523;28;20051;-58
2022/07/04 14:05:28;;;;;;;4.95;0.50;;;;;;;;;;4965891;28;20046;-59
2022/07/04 14:07:54;;;;;;;2.40;0.40;;;;;;;;;;4968224;28;20054;-58
2022/07/04 14:10:21;;;;;;;2.63;0.50;;;;;;;;;;4967080;28;20054;-58
2022/07/04 14:12:47;;;;;;;2.63;0.43;;;;;;;;;;4968630;28;20071;-58
2022/07/04 14:15:13;;;;;;;3.95;0.45;;;;;;;;;;4967522;28;20148;-59
2022/07/04 14:17:39;;;;;;;2.38;0.47;;;;;;;;;;4967224;28;20143;-58
2022/07/04 14:20:07;;;;;;;2.03;0.50;;;;;;;;;;4968163;28;20130;-58
2022/07/04 14:22:34;;;;;;;3.92;0.60;;;;;;;;;;4967503;28;20082;-58
2022/07/04 14:25:00;;;;;;;1.17;0.50;;;;;;;;;;4968380;28;20043;-58
2022/07/04 14:27:26;;;;;;;1.60;0.40;;;;;;;;;;4967155;28;20061;-58
2022/07/04 14:29:52;;;;;;;4.22;0.50;;;;;;;;;;4967691;28;20094;-58
2022/07/04 14:32:18;;;;;;;4.22;0.50;;;;;;;;;;4967717;28;21019;-58
2022/07/04 14:34:44;;;;;;;1.10;0.30;;;;;;;;;;4967915;28;20049;-58
2022/07/04 14:37:10;;;;;;;1.00;0.30;;;;;;;;;;4967571;28;20039;-58
2022/07/04 14:39:37;;;;;;;1.70;0.40;;;;;;;;;;4968383;28;20500;-58
2022/07/04 14:42:03;;;;;;;3.15;0.60;;;;;;;;;;4967891;28;20042;-58
2022/07/04 14:44:29;;;;;;;2.13;0.43;;;;;;;;;;4964777;28;20054;-57
2022/07/04 14:46:55;;;;;;;6.90;0.40;;;;;;;;;;4967450;28;20038;-58
2022/07/04 14:49:22;;;;;;;0.43;0.22;;;;;;;;;;4967084;28;20156;-58
2022/07/04 14:51:48;;;;;;;1.17;0.30;;;;;;;;;;4966671;28;20121;-58
2022/07/04 14:54:14;;;;;;;1.30;0.50;;;;;;;;;;4967641;28;20039;-58
2022/07/04 14:56:40;;;;;;;1.05;0.30;;;;;;;;;;4967827;28;20113;-58
2022/07/04 14:59:06;;;;;;;2.60;0.35;;;;;;;;;;4967563;28;20050;-57
2022/07/04 15:01:33;;;;;;;4.05;0.40;;;;;;;;;;4967100;28;20047;-57
2022/07/04 15:03:59;;;;;;;1.85;0.30;;;;;;;;;;4967486;28;20039;-57